DW3282 Weather Reports


time (UTC)temp
C
wind
direction
speed
KPH
gust
KPH
rain 1hr
cm
rain 24hr
cm
rain mn
cm
humidity
%
barometer
mb
20200226010014 5 199 8.0 14.5 0.00 0.15 0.00 85 994.6
20200226004548 5 250 4.8 24.1 0.00 0.18 0.00 85 994.4
20200226003018 5 248 3.2 11.3 0.00 0.18 0.00 83 994.4
20200226001521 5 244 3.2 8.0 0.00 0.18 0.00 81 994.4
20200226000005 5 234 1.6 9.7 0.00 0.18 0.00 80 994.4
20200225234503 5 257 1.6 4.8 0.00 0.18 0.00 81 994.8
20200225233002 5 238 3.2 11.3 0.00 0.18 0.00 81 995.0
20200225231747 5 269 8.0 17.7 0.00 0.18 0.00 80 995.5
20200225230010 5 223 11.3 19.3 0.00 0.18 0.00 81 995.8
20200225224502 5 247 3.2 8.0 0.00 0.18 0.18 80 995.4
20200225223127 5 264 3.2 8.0 0.00 0.18 0.18 80 995.1
20200225223001 5 302 3.2 8.0 0.00 0.18 0.18 80 995.2
20200225221715 5 255 4.8 9.7 0.00 0.18 0.18 81 995.7
20200225214631 6 279 4.8 12.9 0.00 0.18 0.18 83 996.2
20200225213117 6 240 6.4 12.9 0.00 0.18 0.18 83 996.4
20200225211623 6 234 6.4 14.5 0.00 0.18 0.18 83 996.0
20200225210011 6 254 8.0 20.9 0.00 0.18 0.18 82 995.9
20200225204524 6 224 8.0 14.5 0.00 0.18 0.18 82 996.0
20200225203012 6 242 6.4 16.1 0.03 0.18 0.18 81 996.3
20200225201508 6 226 9.7 19.3 0.03 0.18 0.18 82 996.3
20200225200205 7 250 8.0 19.3 0.03 0.18 0.18 81 996.2
20200225194617 7 242 3.2 8.0 0.03 0.18 0.18 81 996.6
20200225193121 7 205 4.8 11.3 0.00 0.15 0.15 80 996.9
20200225191717 7 259 4.8 9.7 0.00 0.15 0.15 79 997.0
20200225190007 7 254 4.8 14.5 0.00 0.15 0.15 78 997.1
20200225184505 7 229 1.6 6.4 0.00 0.15 0.15 77 997.2
20200225183011 7 229 1.6 3.2 0.00 0.15 0.15 76 997.3
20200225181506 7 229 0.0 1.6 0.00 0.15 0.15 75 997.4
20200225180311 7 229 1.6 4.8 0.00 0.15 0.15 74 997.6
20200225174617 7 229 0.0 4.8 0.00 0.15 0.15 73 997.4
20200225173229 7 229 1.6 8.0 0.00 0.15 0.15 72 997.6
20200225171655 8 260 4.8 12.9 0.00 0.15 0.15 73 997.8
20200225170017 8 259 4.8 11.3 0.00 0.15 0.15 73 997.9
20200225164523 8 254 8.0 17.7 0.00 0.15 0.15 73 998.2
20200225163039 8 234 6.4 16.1 0.03 0.15 0.15 73 998.3
20200225161508 8 251 8.0 12.9 0.03 0.15 0.15 73 998.3
20200225160008 8 242 4.8 11.3 0.03 0.15 0.15 76 998.5
20200225154514 8 191 6.4 20.9 0.03 0.18 0.15 75 998.6
20200225153147 10 209 8.0 16.1 0.00 0.15 0.15 64 998.6
20200225151649 10 228 9.7 24.1 0.00 0.15 0.15 63 998.6
20200225150004 11 270 12.9 27.4 0.00 0.15 0.15 60 998.7
20200225144754 11 267 12.9 27.4 0.00 0.15 0.15 56 998.7
20200225143129 12 240 12.9 22.5 0.00 0.15 0.15 57 998.8
20200225141618 11 248 11.3 29.0 0.00 0.15 0.15 59 999.0
20200225140210 11 261 11.3 32.2 0.00 0.15 0.15 61 999.0
20200225134627 11 207 8.0 19.3 0.00 0.15 0.15 61 999.0
20200225133226 11 201 12.9 24.1 0.00 0.15 0.15 63 999.2
20200225131605 11 219 12.9 27.4 0.00 0.15 0.15 65 999.4
20200225130153 11 260 14.5 25.7 0.00 0.15 0.15 65 999.7
20200225124646 10 231 8.0 16.1 0.00 0.15 0.15 68 999.9
20200225123130 10 184 9.7 24.1 0.00 0.15 0.15 71 1000.3
20200225121707 9 240 11.3 29.0 0.00 0.15 0.15 71 1000.7
20200225120012 9 323 9.7 22.5 0.00 0.15 0.15 75 1000.7
20200225114511 9 263 8.0 24.1 0.00 0.18 0.15 76 1000.6
20200225113017 8 223 9.7 20.9 0.00 0.18 0.15 77 1000.7
20200225111511 8 211 9.7 20.9 0.00 0.18 0.15 76 1000.9
20200225110033 9 243 12.9 27.4 0.00 0.18 0.15 75 1001.3
20200225104504 8 238 9.7 25.7 0.00 0.25 0.15 78 1001.4
20200225101657 8 277 11.3 25.7 0.00 0.25 0.15 84 1001.5
20200225100148 8 200 11.3 20.9 0.03 0.25 0.15 85 1001.4
20200225094624 8 247 6.4 16.1 0.03 0.25 0.15 89 1001.4
20200225093129 8 225 6.4 12.9 0.03 0.25 0.15 91 1001.5
20200225091625 8 202 8.0 16.1 0.03 0.25 0.15 92 1001.6
20200225090023 8 246 6.4 14.5 0.03 0.23 0.13 92 1001.5
20200225084514 8 228 4.8 12.9 0.05 0.23 0.13 92 1001.8
20200225083007 8 241 6.4 12.9 0.05 0.23 0.13 92 1001.9
20200225081507 8 222 4.8 11.3 0.05 0.23 0.13 91 1002.0
20200225080034 8 212 6.4 12.9 0.03 0.23 0.10 90 1002.0
20200225074511 8 212 8.0 16.1 0.00 0.20 0.08 88 1002.0
20200225073002 8 222 12.9 27.4 0.00 0.20 0.08 86 1001.9
20200225071651 8 234 12.9 24.1 0.00 0.20 0.08 86 1001.7
20200225070024 8 205 12.9 19.3 0.00 0.20 0.08 87 1001.7
20200225064649 8 173 11.3 22.5 0.00 0.20 0.08 88 1002.0
20200225063235 8 225 8.0 17.7 0.00 0.20 0.08 88 1002.0
20200225061637 8 221 4.8 16.1 0.00 0.20 0.08 89 1002.1
20200225060127 8 227 8.0 11.3 0.00 0.20 0.08 89 1002.1
20200225054605 8 225 3.2 9.7 0.00 0.20 0.08 89 1002.4
20200225053211 8 177 6.4 12.9 0.00 0.20 0.08 89 1002.4
20200225051708 8 231 6.4 12.9 0.00 0.20 0.08 88 1002.6
20200225050019 8 233 6.4 11.3 0.00 0.20 0.08 88 1002.8
20200225044543 8 203 6.4 11.3 0.00 0.20 0.08 88 1003.0
20200225043017 9 227 6.4 12.9 0.00 0.20 0.08 87 1003.2
20200225041509 9 232 4.8 14.5 0.00 0.20 0.08 86 1003.2
20200225040005 9 241 8.0 16.1 0.00 0.20 0.08 86 1003.2
20200225034504 9 238 9.7 16.1 0.00 0.20 0.08 86 1003.1
20200225033001 9 207 9.7 16.1 0.00 0.20 0.08 86 1003.3
20200225031622 9 222 8.0 17.7 0.00 0.20 0.08 86 1003.6
20200225030007 10 240 8.0 16.1 0.03 0.20 0.08 87 1003.6
20200225024535 10 224 6.4 12.9 0.03 0.20 0.08 87 1003.8
20200225023003 10 193 8.0 16.1 0.03 0.20 0.08 87 1004.0
20200225021623 9 174 4.8 14.5 0.03 0.20 0.08 88 1004.2
20200225020248 9 205 3.2 9.7 0.05 0.18 0.05 88 1004.4
20200225014655 10 219 1.6 8.0 0.05 0.18 0.05 87 1004.7
20200225013224 10 108 3.2 8.0 0.05 0.18 0.05 87 1005.1